createdAt,value
2022-11-10T00:00:09.914Z,7.10
2022-11-10T00:01:10.051Z,6.40
2022-11-10T00:02:10.658Z,5.90
2022-11-10T00:03:09.677Z,6.20
2022-11-10T00:04:09.997Z,6.60
2022-11-10T00:05:09.912Z,6.30
2022-11-10T00:06:10.115Z,6.80
2022-11-10T00:07:09.687Z,6.40
2022-11-10T00:08:11.433Z,6.40
2022-11-10T00:09:10.379Z,6.60
2022-11-10T00:10:09.942Z,6.80
2022-11-10T00:11:10.924Z,6.80
2022-11-10T00:12:10.784Z,7.00
2022-11-10T00:13:09.736Z,6.50
2022-11-10T00:14:09.639Z,7.20
2022-11-10T00:15:10.807Z,6.80
2022-11-10T00:16:15.044Z,6.60
2022-11-10T00:17:10.625Z,7.00
2022-11-10T00:18:09.800Z,6.40
2022-11-10T00:19:09.597Z,6.50
2022-11-10T00:20:09.527Z,7.40
2022-11-10T00:21:09.605Z,7.30
2022-11-10T00:22:09.845Z,6.80
2022-11-10T00:23:09.774Z,7.40
2022-11-10T00:24:09.311Z,6.30
2022-11-10T00:25:10.042Z,7.20
2022-11-10T00:26:09.635Z,7.10
2022-11-10T00:27:09.391Z,7.30
2022-11-10T00:28:10.323Z,7.80
2022-11-10T00:29:09.681Z,7.50
2022-11-10T00:30:10.321Z,8.00
2022-11-10T00:31:09.724Z,7.20
2022-11-10T00:32:09.633Z,7.70
2022-11-10T00:33:09.816Z,7.70
2022-11-10T00:34:09.361Z,7.70
2022-11-10T00:35:11.755Z,7.90
2022-11-10T00:36:10.057Z,7.60
2022-11-10T00:37:09.273Z,8.80
2022-11-10T00:38:09.902Z,7.70
2022-11-10T00:39:09.552Z,7.60
2022-11-10T00:40:09.918Z,7.90
2022-11-10T00:41:09.351Z,8.10
2022-11-10T00:42:09.773Z,7.90
2022-11-10T00:43:09.540Z,8.00
2022-11-10T00:44:09.413Z,7.00
2022-11-10T00:45:09.467Z,7.30
2022-11-10T00:46:09.561Z,6.80
2022-11-10T00:47:10.022Z,6.60
2022-11-10T00:48:09.377Z,6.10
2022-11-10T00:49:09.399Z,7.00
2022-11-10T00:50:10.217Z,6.50
2022-11-10T00:51:09.373Z,7.00
2022-11-10T00:52:09.515Z,6.00
2022-11-10T00:53:09.707Z,6.60
2022-11-10T00:54:09.202Z,6.60
2022-11-10T00:55:09.225Z,6.30
2022-11-10T00:56:09.388Z,6.50
2022-11-10T00:57:09.070Z,6.50
2022-11-10T00:58:10.079Z,6.50
2022-11-10T00:59:09.363Z,6.20
2022-11-10T01:00:10.558Z,6.80
2022-11-10T01:01:10.887Z,6.80
2022-11-10T01:02:10.308Z,6.30
2022-11-10T01:03:08.939Z,5.90
2022-11-10T01:04:09.105Z,6.90
2022-11-10T01:05:09.638Z,6.00
2022-11-10T01:06:08.946Z,6.50
2022-11-10T01:07:09.905Z,6.20
2022-11-10T01:08:09.287Z,6.50
2022-11-10T01:09:09.102Z,6.20
2022-11-10T01:10:09.843Z,6.70
2022-11-10T01:11:09.462Z,5.80
2022-11-10T01:12:09.712Z,6.20
2022-11-10T01:13:08.777Z,6.10
2022-11-10T01:14:09.682Z,5.80
2022-11-10T01:15:09.374Z,5.60
2022-11-10T01:16:09.408Z,6.00
2022-11-10T01:17:09.174Z,5.60
2022-11-10T01:18:09.422Z,5.90
2022-11-10T01:19:09.230Z,5.60
2022-11-10T01:20:09.419Z,5.80
2022-11-10T01:21:08.811Z,5.80
2022-11-10T01:22:16.197Z,5.50
2022-11-10T01:23:18.063Z,5.00
2022-11-10T01:24:14.706Z,5.90
2022-11-10T01:25:12.482Z,5.70
2022-11-10T01:26:12.532Z,5.10
2022-11-10T01:27:14.707Z,5.20
2022-11-10T01:28:17.023Z,5.60
2022-11-10T01:29:16.258Z,5.00
2022-11-10T01:30:13.322Z,5.40
2022-11-10T01:31:15.217Z,5.60
2022-11-10T01:32:20.062Z,4.70
2022-11-10T01:33:19.971Z,5.30
2022-11-10T01:34:14.682Z,5.50
2022-11-10T01:35:12.337Z,6.00
2022-11-10T01:36:35.598Z,5.50
2022-11-10T01:39:39.459Z,4.90
2022-11-10T01:40:21.263Z,4.80
2022-11-10T01:41:14.924Z,5.10
2022-11-10T01:42:12.937Z,4.60
2022-11-10T01:43:15.569Z,4.50
2022-11-10T01:44:13.536Z,5.10
2022-11-10T01:45:16.773Z,5.30
2022-11-10T01:46:15.597Z,4.50
2022-11-10T01:47:14.769Z,4.40
2022-11-10T01:48:13.352Z,4.70
2022-11-10T01:49:17.293Z,4.80
2022-11-10T01:50:21.461Z,5.30
2022-11-10T01:51:13.702Z,4.60
2022-11-10T01:52:20.693Z,4.60
2022-11-10T01:53:12.840Z,5.80
2022-11-10T01:55:48.734Z,5.40
2022-11-10T01:56:33.860Z,5.30
2022-11-10T01:57:41.503Z,5.00
2022-11-10T01:58:43.875Z,4.90
2022-11-10T01:59:39.446Z,5.20
2022-11-10T02:00:38.189Z,5.30
2022-11-10T02:01:38.178Z,5.00
2022-11-10T02:02:39.558Z,5.30
2022-11-10T02:03:37.918Z,5.60
2022-11-10T02:04:39.203Z,5.60
2022-11-10T02:05:36.179Z,5.20
2022-11-10T02:06:36.512Z,5.20
2022-11-10T02:07:40.946Z,5.80
2022-11-10T02:08:45.817Z,5.50
2022-11-10T02:09:41.569Z,6.10
2022-11-10T02:10:36.375Z,5.40
2022-11-10T02:11:39.523Z,6.00
2022-11-10T02:12:34.862Z,5.30
2022-11-10T02:13:43.332Z,6.10
2022-11-10T02:14:32.781Z,5.70
2022-11-10T02:15:33.037Z,5.90
2022-11-10T02:16:32.734Z,5.80
2022-11-10T02:17:32.648Z,5.80
2022-11-10T02:18:32.489Z,6.20
2022-11-10T02:19:32.739Z,6.40
2022-11-10T02:20:32.523Z,5.90
2022-11-10T02:21:32.548Z,6.10
2022-11-10T02:22:33.415Z,5.60
2022-11-10T02:23:33.992Z,6.20
2022-11-10T02:24:33.323Z,6.50
2022-11-10T02:25:32.667Z,5.80
2022-11-10T02:26:33.603Z,6.80
2022-11-10T02:27:32.466Z,6.20
2022-11-10T02:28:32.609Z,6.60
2022-11-10T02:29:38.231Z,7.40
2022-11-10T02:30:36.640Z,6.90
2022-11-10T02:31:39.537Z,6.90
2022-11-10T02:32:37.765Z,7.10
2022-11-10T02:33:41.990Z,7.50
2022-11-10T02:36:45.627Z,7.20
2022-11-10T02:37:41.022Z,7.60
2022-11-10T02:38:35.421Z,8.20
2022-11-10T02:39:40.000Z,7.80
2022-11-10T02:40:39.648Z,7.90
2022-11-10T02:41:37.104Z,7.00
2022-11-10T02:42:38.143Z,7.70
2022-11-10T02:43:41.898Z,8.60
2022-11-10T02:44:39.181Z,7.70
2022-11-10T02:45:33.735Z,8.70
2022-11-10T02:46:33.399Z,7.70
2022-11-10T02:47:36.226Z,7.50
2022-11-10T02:48:36.509Z,8.80
2022-11-10T02:49:37.091Z,8.00
2022-11-10T02:50:37.117Z,8.10
2022-11-10T02:51:35.553Z,7.20
2022-11-10T02:52:43.493Z,8.40
2022-11-10T02:53:50.269Z,8.20
2022-11-10T02:54:34.037Z,8.20
2022-11-10T02:55:37.311Z,8.30
2022-11-10T02:56:39.083Z,8.60
2022-11-10T02:57:33.922Z,8.80
2022-11-10T02:58:44.562Z,8.60
2022-11-10T02:59:39.024Z,8.30
2022-11-10T03:00:40.075Z,8.70
2022-11-10T03:01:36.879Z,8.50
2022-11-10T03:02:35.546Z,9.50
2022-11-10T03:03:39.278Z,10.10
2022-11-10T03:04:36.356Z,9.40
2022-11-10T03:05:35.687Z,10.20
2022-11-10T03:06:45.391Z,10.10
2022-11-10T03:08:08.916Z,10.40
2022-11-10T03:08:41.885Z,10.70
2022-11-10T03:09:57.323Z,10.30
2022-11-10T03:10:36.574Z,11.10
2022-11-10T03:11:38.714Z,10.60
2022-11-10T03:12:33.924Z,10.60
2022-11-10T03:13:59.872Z,10.50
2022-11-10T03:14:39.661Z,10.80
2022-11-10T03:16:55.847Z,10.90
2022-11-10T03:17:55.633Z,11.10
2022-11-10T03:18:58.470Z,11.40
2022-11-10T03:19:55.760Z,12.60
2022-11-10T03:20:57.722Z,12.30
2022-11-10T03:21:56.007Z,12.80
2022-11-10T03:22:53.485Z,12.40
2022-11-10T03:23:56.747Z,12.60
2022-11-10T03:25:14.401Z,12.80
2022-11-10T03:25:57.050Z,12.60
2022-11-10T03:26:59.385Z,12.20
2022-11-10T03:27:56.664Z,12.40
2022-11-10T03:28:59.635Z,12.00
2022-11-10T03:29:57.869Z,12.80
2022-11-10T03:30:56.166Z,12.40
2022-11-10T03:31:56.193Z,13.00
2022-11-10T03:32:55.542Z,14.10
2022-11-10T03:34:15.033Z,13.90
2022-11-10T03:34:57.925Z,12.70
2022-11-10T03:35:56.511Z,14.60
2022-11-10T03:36:56.059Z,14.00
2022-11-10T03:37:51.448Z,14.30
2022-11-10T03:38:57.715Z,13.10
2022-11-10T03:39:54.946Z,13.50
2022-11-10T03:41:18.065Z,14.40
2022-11-10T03:41:57.850Z,13.80
2022-11-10T03:42:56.016Z,14.50
2022-11-10T03:43:56.680Z,13.40
2022-11-10T03:44:58.090Z,13.20
2022-11-10T03:45:56.474Z,12.40
2022-11-10T03:46:53.674Z,13.90
2022-11-10T03:47:51.111Z,12.60
2022-11-10T03:48:55.859Z,12.90
2022-11-10T03:49:55.234Z,12.60
2022-11-10T03:51:14.211Z,12.90
2022-11-10T03:51:56.186Z,12.60
2022-11-10T03:52:55.689Z,12.00
2022-11-10T03:53:51.701Z,11.40
2022-11-10T03:54:53.371Z,12.20
2022-11-10T03:55:57.131Z,12.20
2022-11-10T03:56:54.427Z,10.90
2022-11-10T03:57:54.035Z,11.10
2022-11-10T03:58:52.441Z,12.10
2022-11-10T03:59:53.727Z,12.60
2022-11-10T04:00:57.287Z,12.80
2022-11-10T04:01:53.633Z,12.90
2022-11-10T04:02:53.494Z,12.20
2022-11-10T04:03:53.543Z,13.00
2022-11-10T04:04:52.797Z,12.40
2022-11-10T04:05:56.900Z,12.90
2022-11-10T04:06:52.389Z,13.10
2022-11-10T04:08:05.263Z,12.90
2022-11-10T04:08:54.768Z,12.60
2022-11-10T04:10:01.354Z,12.90
2022-11-10T04:10:52.914Z,13.70
2022-11-10T04:14:27.029Z,12.60
2022-11-10T04:15:29.241Z,13.10
2022-11-10T04:16:33.532Z,13.00
2022-11-10T04:17:27.743Z,12.80
2022-11-10T04:18:33.692Z,12.20
2022-11-10T04:19:30.827Z,12.20
2022-11-10T04:20:31.463Z,11.80
2022-11-10T04:21:52.153Z,11.70
2022-11-10T04:22:28.553Z,12.10
2022-11-10T04:23:30.607Z,11.30
2022-11-10T04:24:32.215Z,11.40
2022-11-10T04:25:29.824Z,11.20
2022-11-10T04:26:29.955Z,11.80
2022-11-10T04:27:32.356Z,11.40
2022-11-10T04:28:37.052Z,10.90
2022-11-10T04:29:30.220Z,11.30
2022-11-10T04:30:33.038Z,10.60
2022-11-10T04:31:30.487Z,11.50
2022-11-10T04:32:31.203Z,11.00
2022-11-10T04:33:28.776Z,10.50
2022-11-10T04:34:52.799Z,10.40
2022-11-10T04:35:28.535Z,10.40
2022-11-10T04:36:30.984Z,11.10
2022-11-10T04:37:35.347Z,11.10
2022-11-10T04:38:34.481Z,10.90
2022-11-10T04:39:30.984Z,10.80
2022-11-10T04:40:39.964Z,10.90
2022-11-10T04:41:30.926Z,10.70
2022-11-10T04:42:29.809Z,10.50
2022-11-10T04:43:29.540Z,10.00
2022-11-10T04:46:30.564Z,10.80
2022-11-10T04:47:26.065Z,10.40
2022-11-10T04:48:26.118Z,10.70
2022-11-10T04:49:25.320Z,9.70
2022-11-10T04:50:28.570Z,9.80
2022-11-10T04:51:28.443Z,9.60
2022-11-10T04:52:27.958Z,9.90
2022-11-10T04:53:25.760Z,10.20
2022-11-10T04:54:26.038Z,10.30
2022-11-10T04:55:25.988Z,10.30
2022-11-10T04:56:26.407Z,10.00
2022-11-10T04:57:24.916Z,10.50
2022-11-10T04:58:47.114Z,10.80
2022-11-10T04:59:27.884Z,9.60
2022-11-10T05:00:26.744Z,9.80
2022-11-10T05:01:26.434Z,9.20
2022-11-10T05:02:27.226Z,9.40
2022-11-10T05:03:27.857Z,10.30
2022-11-10T05:04:27.056Z,9.50
2022-11-10T05:05:25.952Z,9.70
2022-11-10T05:06:25.554Z,10.40
2022-11-10T05:07:26.815Z,10.40
2022-11-10T05:08:25.302Z,9.60
2022-11-10T05:09:25.038Z,10.10
2022-11-10T05:10:28.058Z,9.50
2022-11-10T05:11:27.558Z,9.40
2022-11-10T05:12:25.778Z,9.20
2022-11-10T05:13:25.323Z,9.70
2022-11-10T05:14:29.194Z,9.40
2022-11-10T05:15:27.588Z,9.20
2022-11-10T05:16:25.451Z,9.90
2022-11-10T05:17:27.982Z,10.00
2022-11-10T05:18:28.857Z,9.90
2022-11-10T05:19:24.223Z,10.10
2022-11-10T05:20:24.268Z,10.50
2022-11-10T05:21:25.251Z,10.20
2022-11-10T05:22:32.015Z,10.50
2022-11-10T05:23:26.878Z,10.30
2022-11-10T05:24:29.879Z,10.40
2022-11-10T05:25:24.567Z,9.40
2022-11-10T05:26:26.189Z,9.50
2022-11-10T05:27:45.549Z,9.60
2022-11-10T05:28:24.079Z,10.00
2022-11-10T05:29:25.574Z,9.20
2022-11-10T05:30:30.843Z,9.70
2022-11-10T05:31:30.919Z,10.00
2022-11-10T05:32:28.312Z,9.90
2022-11-10T05:33:26.459Z,10.70
2022-11-10T05:34:31.236Z,11.30
2022-11-10T05:35:25.883Z,10.50
2022-11-10T05:36:35.263Z,10.10
2022-11-10T05:37:23.596Z,10.80
2022-11-10T05:38:30.236Z,10.20
2022-11-10T05:39:28.227Z,11.00
2022-11-10T05:40:25.259Z,10.10
2022-11-10T05:41:29.919Z,10.80
2022-11-10T05:42:31.239Z,10.50
2022-11-10T05:43:43.149Z,10.00
2022-11-10T05:44:28.206Z,10.30
2022-11-10T05:45:32.171Z,10.00
2022-11-10T05:46:26.522Z,10.10
2022-11-10T05:47:25.303Z,11.60
2022-11-10T05:48:23.951Z,10.70
2022-11-10T05:49:27.322Z,10.50
2022-11-10T05:50:38.876Z,10.20
2022-11-10T05:53:59.195Z,10.90
2022-11-10T05:55:02.636Z,11.10
2022-11-10T05:56:01.687Z,10.80
2022-11-10T05:57:02.658Z,11.40
2022-11-10T05:57:54.979Z,11.30
2022-11-10T05:58:54.145Z,11.20
2022-11-10T06:00:01.052Z,10.90
2022-11-10T06:01:01.302Z,10.70
2022-11-10T06:02:08.247Z,10.90
2022-11-10T06:03:01.063Z,11.50
2022-11-10T06:04:00.341Z,12.00
2022-11-10T06:04:59.394Z,11.70
2022-11-10T06:05:59.792Z,12.00
2022-11-10T06:06:58.273Z,12.20
2022-11-10T06:08:01.216Z,12.40
2022-11-10T06:09:00.278Z,13.00
2022-11-10T06:09:55.931Z,12.10
2022-11-10T06:10:59.090Z,11.80
2022-11-10T06:12:00.659Z,11.60
2022-11-10T06:13:14.130Z,10.70
2022-11-10T06:14:28.180Z,12.50
2022-11-10T06:14:54.995Z,12.10
2022-11-10T06:15:58.563Z,11.70
2022-11-10T06:16:55.587Z,12.10
2022-11-10T06:17:55.955Z,12.20
2022-11-10T06:18:55.253Z,11.70
2022-11-10T06:19:56.293Z,13.20
2022-11-10T06:20:59.498Z,12.30
2022-11-10T06:24:29.329Z,13.60
2022-11-10T06:25:08.895Z,13.50
2022-11-10T06:26:13.497Z,12.90
2022-11-10T06:27:09.286Z,13.80
2022-11-10T06:28:36.623Z,13.30
2022-11-10T06:29:26.760Z,13.00
2022-11-10T06:30:15.933Z,13.30
2022-11-10T06:31:12.830Z,13.10
2022-11-10T06:32:13.680Z,13.80
2022-11-10T06:33:13.930Z,13.50
2022-11-10T06:34:18.321Z,13.50
2022-11-10T06:35:21.844Z,13.10
2022-11-10T06:36:11.302Z,12.20
2022-11-10T06:37:11.690Z,12.10
2022-11-10T06:38:09.865Z,13.00
2022-11-10T06:39:32.967Z,12.70
2022-11-10T06:40:16.582Z,12.50
2022-11-10T06:41:26.187Z,12.40
2022-11-10T06:42:16.539Z,12.90
2022-11-10T06:43:36.577Z,12.10
2022-11-10T06:44:16.502Z,11.90
2022-11-10T06:45:15.540Z,12.30
2022-11-10T06:46:11.963Z,11.10
2022-11-10T06:47:13.603Z,11.70
2022-11-10T06:48:08.227Z,11.80
2022-11-10T06:49:14.260Z,11.20
2022-11-10T06:50:14.087Z,10.70
2022-11-10T06:51:13.740Z,10.70
2022-11-10T06:52:14.474Z,11.50
2022-11-10T06:53:13.534Z,10.50
2022-11-10T06:54:13.725Z,11.00
2022-11-10T06:55:13.321Z,10.00
2022-11-10T06:56:11.930Z,10.00
2022-11-10T06:57:13.493Z,9.80
2022-11-10T06:58:14.294Z,11.00
2022-11-10T06:59:19.328Z,9.60
2022-11-10T07:00:14.115Z,9.40
2022-11-10T07:01:07.481Z,9.60
2022-11-10T07:02:10.013Z,9.80
2022-11-10T07:03:08.543Z,10.40
2022-11-10T07:04:19.670Z,9.60
2022-11-10T07:05:14.297Z,9.60
2022-11-10T07:06:10.010Z,10.30
2022-11-10T07:07:29.868Z,10.20
2022-11-10T07:08:09.357Z,10.30
2022-11-10T07:09:14.917Z,9.30
2022-11-10T07:10:16.566Z,10.10
2022-11-10T07:11:14.143Z,9.40
2022-11-10T07:12:35.530Z,9.70
2022-11-10T07:13:11.162Z,10.40
2022-11-10T07:14:36.323Z,10.50
2022-11-10T07:15:16.075Z,10.30
2022-11-10T07:16:10.097Z,10.90
2022-11-10T07:17:12.858Z,11.60
2022-11-10T07:18:11.709Z,11.10
2022-11-10T07:19:11.289Z,10.80
2022-11-10T07:20:11.047Z,10.70
2022-11-10T07:21:13.282Z,11.10
2022-11-10T07:22:11.976Z,11.80
2022-11-10T07:23:10.834Z,12.20
2022-11-10T07:24:09.884Z,11.10
2022-11-10T07:25:10.873Z,11.30
2022-11-10T07:26:12.140Z,11.00
2022-11-10T07:27:21.926Z,11.30
2022-11-10T07:28:10.942Z,13.20
2022-11-10T07:30:48.998Z,12.80
2022-11-10T07:31:45.910Z,13.00
2022-11-10T07:32:45.595Z,11.00
2022-11-10T07:33:46.142Z,11.30
2022-11-10T07:34:49.852Z,10.00
2022-11-10T07:35:45.081Z,10.20
2022-11-10T07:36:45.506Z,10.00
2022-11-10T07:38:08.195Z,9.10
2022-11-10T07:38:49.689Z,9.60
2022-11-10T07:39:46.299Z,10.00
2022-11-10T07:40:47.459Z,9.90
2022-11-10T07:43:26.422Z,9.70
2022-11-10T07:44:20.526Z,9.20
2022-11-10T07:45:16.899Z,8.80
2022-11-10T07:46:17.368Z,8.80
2022-11-10T07:47:19.885Z,8.80
2022-11-10T07:50:24.458Z,8.10
2022-11-10T07:51:05.879Z,7.80
2022-11-10T07:52:05.778Z,8.90
2022-11-10T07:53:05.326Z,8.20
2022-11-10T07:54:05.413Z,9.20
2022-11-10T07:55:05.744Z,7.90
2022-11-10T07:56:05.224Z,8.50
2022-11-10T07:57:05.119Z,7.80
2022-11-10T07:58:05.758Z,8.00
2022-11-10T07:59:05.502Z,8.50
2022-11-10T08:00:05.329Z,9.10
2022-11-10T08:01:05.191Z,8.80
2022-11-10T08:02:05.610Z,8.10
2022-11-10T08:03:05.279Z,8.70
2022-11-10T08:04:06.203Z,8.30
2022-11-10T08:05:05.138Z,8.80
2022-11-10T08:06:04.991Z,9.60
2022-11-10T08:07:05.992Z,9.40
2022-11-10T08:08:05.258Z,9.10
2022-11-10T08:09:05.028Z,9.50
2022-11-10T08:10:05.201Z,9.00
2022-11-10T08:11:05.010Z,9.50
2022-11-10T08:12:05.386Z,10.70
2022-11-10T08:13:05.346Z,9.70
2022-11-10T08:14:05.079Z,8.80
2022-11-10T08:15:05.242Z,9.90
2022-11-10T08:16:05.094Z,9.40
2022-11-10T08:17:06.293Z,9.70
2022-11-10T08:18:05.067Z,10.10
2022-11-10T08:19:04.775Z,10.60
2022-11-10T08:20:04.891Z,9.90
2022-11-10T08:21:04.999Z,9.50
2022-11-10T08:22:05.252Z,9.40
2022-11-10T08:23:04.958Z,10.50
2022-11-10T08:24:05.388Z,10.50
2022-11-10T08:25:05.023Z,10.90
2022-11-10T08:26:05.707Z,10.30
2022-11-10T08:27:04.789Z,10.30
2022-11-10T08:28:04.880Z,10.40
2022-11-10T08:29:05.094Z,9.50
2022-11-10T08:30:05.573Z,10.40
2022-11-10T08:31:06.269Z,10.30
2022-11-10T08:32:05.798Z,10.10
2022-11-10T08:33:05.000Z,10.90
2022-11-10T08:34:04.824Z,11.50
2022-11-10T08:35:04.591Z,10.90
2022-11-10T08:36:08.378Z,11.10
2022-11-10T08:37:05.133Z,11.10
2022-11-10T08:38:09.019Z,11.10
2022-11-10T08:39:05.904Z,11.30
2022-11-10T08:40:05.552Z,10.60
2022-11-10T08:41:05.863Z,10.60
2022-11-10T08:42:06.898Z,10.70
2022-11-10T08:43:05.558Z,11.20
2022-11-10T08:44:10.588Z,10.70
2022-11-10T08:45:05.514Z,10.60
2022-11-10T08:46:04.893Z,10.60
2022-11-10T08:47:05.365Z,11.50
2022-11-10T08:48:04.565Z,11.70
2022-11-10T08:49:04.673Z,12.20
2022-11-10T08:50:07.639Z,11.60
2022-11-10T08:51:04.747Z,11.70
2022-11-10T08:52:04.690Z,11.50
2022-11-10T08:53:05.414Z,11.50
2022-11-10T08:54:04.687Z,11.80
2022-11-10T08:55:05.533Z,12.80
2022-11-10T08:56:06.065Z,11.80
2022-11-10T08:57:06.365Z,12.40
2022-11-10T08:58:05.443Z,11.40
2022-11-10T08:59:05.179Z,10.90
2022-11-10T09:00:05.493Z,12.10
2022-11-10T09:01:05.834Z,12.10
2022-11-10T09:02:09.939Z,11.90
2022-11-10T09:03:06.480Z,11.80
2022-11-10T09:04:06.772Z,12.50
2022-11-10T09:05:07.437Z,10.90
2022-11-10T09:06:05.025Z,12.20
2022-11-10T09:07:04.359Z,12.30
2022-11-10T09:08:07.894Z,12.10
2022-11-10T09:09:04.784Z,12.00
2022-11-10T09:10:07.520Z,11.40
2022-11-10T09:11:04.802Z,11.20
2022-11-10T09:12:05.796Z,11.30
2022-11-10T09:13:05.440Z,11.60
2022-11-10T09:14:05.181Z,11.30
2022-11-10T09:15:07.680Z,11.90
2022-11-10T09:16:08.170Z,12.20
2022-11-10T09:17:16.619Z,12.80
2022-11-10T09:18:04.966Z,11.50
2022-11-10T09:19:04.898Z,12.10
2022-11-10T09:20:04.190Z,12.20
2022-11-10T09:21:04.114Z,12.20
2022-11-10T09:22:04.715Z,12.00
2022-11-10T09:23:04.482Z,12.20
2022-11-10T09:24:04.394Z,12.30
2022-11-10T09:25:04.398Z,11.60
2022-11-10T09:26:04.213Z,12.50
2022-11-10T09:27:04.473Z,11.90
2022-11-10T09:28:04.759Z,12.10
2022-11-10T09:29:04.586Z,11.30
2022-11-10T09:30:04.075Z,12.00
2022-11-10T09:31:05.304Z,13.10
2022-11-10T09:32:03.929Z,11.80
2022-11-10T09:33:04.034Z,11.70
2022-11-10T09:34:03.751Z,12.00
2022-11-10T09:35:04.944Z,11.20
2022-11-10T09:36:04.360Z,11.20
2022-11-10T09:37:04.298Z,11.70
2022-11-10T09:38:04.486Z,11.20
2022-11-10T09:39:04.145Z,10.90
2022-11-10T09:40:04.002Z,11.40
2022-11-10T09:41:03.885Z,10.90
2022-11-10T09:42:04.301Z,11.00
2022-11-10T09:43:04.516Z,10.50
2022-11-10T09:44:03.784Z,11.90
2022-11-10T09:45:04.157Z,11.20
2022-11-10T09:46:04.138Z,11.10
2022-11-10T09:47:03.669Z,11.20
2022-11-10T09:48:03.678Z,10.60
2022-11-10T09:49:03.820Z,10.90
2022-11-10T09:50:04.476Z,10.30
2022-11-10T09:51:03.565Z,9.80
2022-11-10T09:52:03.991Z,10.70
2022-11-10T09:53:03.977Z,10.10
2022-11-10T09:54:03.606Z,10.00
2022-11-10T09:55:04.000Z,10.20
2022-11-10T09:56:03.637Z,9.20
2022-11-10T09:57:03.698Z,10.60
2022-11-10T09:58:04.550Z,10.20
2022-11-10T09:59:03.818Z,10.20
2022-11-10T10:00:03.736Z,10.10
2022-11-10T10:01:03.616Z,9.90
2022-11-10T10:02:03.852Z,10.00
2022-11-10T10:03:03.654Z,9.40
2022-11-10T10:04:03.543Z,9.70
2022-11-10T10:05:04.563Z,9.60
2022-11-10T10:06:03.572Z,9.90
2022-11-10T10:07:11.260Z,9.90
2022-11-10T10:08:05.127Z,8.60
2022-11-10T10:09:03.623Z,9.20
2022-11-10T10:10:07.595Z,9.40
2022-11-10T10:11:07.174Z,8.80
2022-11-10T10:12:07.502Z,9.40
2022-11-10T10:13:06.198Z,9.10
2022-11-10T10:14:06.926Z,8.80
2022-11-10T10:15:04.838Z,8.50
2022-11-10T10:16:05.614Z,8.60
2022-11-10T10:17:10.798Z,9.40
2022-11-10T10:18:05.876Z,8.80
2022-11-10T10:19:05.958Z,8.60
2022-11-10T10:20:06.930Z,8.80
2022-11-10T10:21:06.821Z,8.70
2022-11-10T10:22:06.445Z,8.50
2022-11-10T10:23:06.683Z,8.70
2022-11-10T10:27:35.204Z,7.90
2022-11-10T10:28:30.245Z,8.00
2022-11-10T10:29:26.458Z,8.60
2022-11-10T10:30:28.126Z,8.30
2022-11-10T10:31:27.487Z,9.30
2022-11-10T10:32:31.115Z,9.20
2022-11-10T10:33:29.367Z,8.10
2022-11-10T10:34:29.934Z,8.20
2022-11-10T10:35:24.588Z,8.60
2022-11-10T10:36:24.622Z,8.90
2022-11-10T10:37:23.964Z,8.40
2022-11-10T10:38:28.275Z,7.40
2022-11-10T10:39:24.037Z,9.10
2022-11-10T10:40:23.651Z,9.10
2022-11-10T10:41:24.151Z,8.80
2022-11-10T10:42:23.476Z,7.80
2022-11-10T10:43:23.536Z,8.30
2022-11-10T10:44:27.459Z,8.30
2022-11-10T10:45:26.880Z,8.30
2022-11-10T10:46:34.418Z,8.10
2022-11-10T10:47:25.263Z,7.90
2022-11-10T10:48:24.144Z,7.40
2022-11-10T10:49:30.127Z,8.80
2022-11-10T10:50:25.108Z,8.50
2022-11-10T10:51:25.784Z,7.30
2022-11-10T10:52:25.172Z,7.60
2022-11-10T10:53:24.980Z,8.00
2022-11-10T10:54:26.464Z,8.10
2022-11-10T10:55:24.776Z,7.60
2022-11-10T10:56:26.070Z,7.40
2022-11-10T10:57:25.446Z,7.50
2022-11-10T10:58:25.093Z,7.90
2022-11-10T10:59:23.939Z,8.10
2022-11-10T11:00:26.083Z,9.00
2022-11-10T11:01:24.918Z,7.80
2022-11-10T11:02:24.168Z,7.20
2022-11-10T11:03:24.426Z,7.60
2022-11-10T11:04:24.243Z,7.60
2022-11-10T11:05:23.475Z,7.40
2022-11-10T11:06:24.469Z,7.70
2022-11-10T11:07:24.100Z,7.70
2022-11-10T11:08:23.999Z,7.60
2022-11-10T11:09:24.631Z,7.40
2022-11-10T11:12:41.391Z,7.40
2022-11-10T11:13:37.660Z,7.30
2022-11-10T11:14:44.684Z,8.20
2022-11-10T11:15:38.112Z,8.00
2022-11-10T11:16:37.010Z,8.40
2022-11-10T11:17:36.397Z,7.60
2022-11-10T11:18:37.465Z,7.60
2022-11-10T11:19:35.608Z,7.60
2022-11-10T11:20:37.867Z,6.90
2022-11-10T11:21:39.066Z,6.60
2022-11-10T11:22:35.475Z,7.80
2022-11-10T11:23:35.553Z,7.10
2022-11-10T11:24:36.947Z,7.40
2022-11-10T11:25:35.734Z,7.00
2022-11-10T11:26:35.359Z,6.80
2022-11-10T11:27:35.421Z,7.20
2022-11-10T11:28:35.418Z,7.20
2022-11-10T11:29:35.435Z,7.80
2022-11-10T11:30:35.405Z,6.60
2022-11-10T11:31:38.814Z,7.40
2022-11-10T11:32:36.364Z,7.10
2022-11-10T11:33:35.767Z,6.70
2022-11-10T11:34:35.280Z,7.40
2022-11-10T11:35:35.468Z,6.40
2022-11-10T11:36:35.238Z,7.30
2022-11-10T11:37:35.472Z,6.70
2022-11-10T11:38:35.285Z,6.90
2022-11-10T11:39:35.749Z,6.90
2022-11-10T11:40:35.390Z,7.10
2022-11-10T11:41:35.327Z,6.70
2022-11-10T11:42:35.553Z,6.50
2022-11-10T11:43:35.299Z,7.40
2022-11-10T11:44:35.069Z,7.40
2022-11-10T11:45:35.171Z,6.60
2022-11-10T11:46:35.213Z,6.40
2022-11-10T11:47:35.199Z,6.80
2022-11-10T11:48:36.165Z,6.80
2022-11-10T11:49:41.152Z,6.20
2022-11-10T11:52:27.112Z,6.40
2022-11-10T11:53:25.938Z,6.30
2022-11-10T11:54:32.720Z,6.10
2022-11-10T11:55:29.601Z,6.10
2022-11-10T11:56:28.443Z,7.00
2022-11-10T11:57:27.484Z,5.90
2022-11-10T11:58:29.264Z,6.20
2022-11-10T11:59:27.142Z,6.20
2022-11-10T12:00:27.166Z,6.20
2022-11-10T12:01:27.456Z,6.20
2022-11-10T12:02:33.941Z,6.30
2022-11-10T12:03:29.459Z,6.50
2022-11-10T12:04:27.126Z,6.00
2022-11-10T12:05:30.871Z,6.60
2022-11-10T12:06:30.223Z,6.40
2022-11-10T12:07:31.908Z,6.50
2022-11-10T12:15:42.869Z,6.00
2022-11-10T12:16:39.320Z,6.20
2022-11-10T12:17:39.306Z,5.60
2022-11-10T12:18:32.786Z,5.70
2022-11-10T12:19:38.127Z,5.20
2022-11-10T12:20:38.889Z,6.40
2022-11-10T12:21:37.384Z,6.00
2022-11-10T12:22:55.717Z,5.40
2022-11-10T12:23:35.196Z,5.50
2022-11-10T12:24:34.498Z,5.20
2022-11-10T12:25:36.188Z,5.70
2022-11-10T12:26:38.633Z,5.00
2022-11-10T12:27:32.702Z,6.10
2022-11-10T12:28:33.291Z,5.50
2022-11-10T12:29:59.870Z,5.90
2022-11-10T12:30:36.795Z,5.40
2022-11-10T12:31:37.161Z,5.40
2022-11-10T12:32:41.587Z,5.40
2022-11-10T12:33:38.860Z,5.20
2022-11-10T12:34:34.558Z,4.30
2022-11-10T12:35:34.867Z,4.60
2022-11-10T12:36:33.046Z,6.60
2022-11-10T12:37:31.252Z,5.60
2022-11-10T12:38:31.433Z,5.60
2022-11-10T12:39:31.626Z,6.30
2022-11-10T12:40:31.532Z,5.40
2022-11-10T12:41:31.671Z,5.20
2022-11-10T12:42:32.473Z,5.50
2022-11-10T12:43:32.150Z,5.00
2022-11-10T12:44:36.025Z,4.40
2022-11-10T12:45:34.573Z,4.90
2022-11-10T12:46:33.866Z,4.50
2022-11-10T12:47:37.531Z,6.10
2022-11-10T12:48:33.317Z,4.90
2022-11-10T12:49:36.977Z,4.80
2022-11-10T12:50:36.539Z,4.60
2022-11-10T12:51:37.583Z,4.90
2022-11-10T12:52:36.440Z,5.00
2022-11-10T12:53:34.857Z,4.90
2022-11-10T12:54:34.628Z,4.40
2022-11-10T12:55:37.847Z,4.30
2022-11-10T12:56:33.667Z,4.90
2022-11-10T12:57:31.879Z,5.00
2022-11-10T12:58:33.879Z,5.50
2022-11-10T12:59:32.322Z,4.90
2022-11-10T13:00:36.182Z,5.10
2022-11-10T13:01:34.316Z,4.80
2022-11-10T13:02:36.232Z,4.80
2022-11-10T13:03:36.423Z,4.90
2022-11-10T13:11:12.561Z,5.50
2022-11-10T13:12:12.742Z,5.40
2022-11-10T13:13:11.578Z,4.70
2022-11-10T13:14:09.836Z,4.70
2022-11-10T13:15:13.907Z,4.50
2022-11-10T13:16:13.076Z,4.90
2022-11-10T13:17:21.409Z,4.70
2022-11-10T13:18:14.234Z,5.00
2022-11-10T13:19:10.345Z,4.90
2022-11-10T13:20:30.464Z,6.90
2022-11-10T13:21:11.232Z,7.00
2022-11-10T13:22:13.275Z,10.20
2022-11-10T13:23:16.591Z,12.20
2022-11-10T13:24:16.370Z,12.60
2022-11-10T13:25:13.746Z,10.90
2022-11-10T13:26:08.975Z,11.30
2022-11-10T13:27:12.187Z,6.20
2022-11-10T13:28:13.747Z,7.10
2022-11-10T13:29:12.406Z,5.20
2022-11-10T13:30:12.227Z,5.60
2022-11-10T13:31:12.674Z,6.10
2022-11-10T13:32:13.344Z,5.70
2022-11-10T13:33:18.591Z,4.70
2022-11-10T13:34:12.047Z,5.30
2022-11-10T13:35:11.535Z,5.00
2022-11-10T13:36:10.706Z,4.60
2022-11-10T13:37:12.261Z,4.40
2022-11-10T13:38:11.079Z,5.20
2022-11-10T13:39:15.994Z,4.60
2022-11-10T13:40:13.195Z,4.40
2022-11-10T13:41:09.790Z,4.80
2022-11-10T13:42:14.881Z,4.80
2022-11-10T13:43:11.075Z,4.50
2022-11-10T13:44:14.290Z,5.20
2022-11-10T13:45:21.151Z,5.20
2022-11-10T13:46:08.421Z,4.60
2022-11-10T13:47:10.691Z,4.70
2022-11-10T13:48:09.285Z,4.50
2022-11-10T13:49:10.441Z,4.50